PWSweather.com
Personal Weather Stations
Station Observations
WATERF01
WaterfordIE

WaterfordIE

Lat: 52.2412507, Lon: -7.1414691

Elevation: 65

Station Type: Davis Vantage Vue

Latest ConditionsUpdated 5:20:02 PM GMT Tuesday, Sep 16, 2014
Currently Today's Max Today's Min Today's Average
Temperature 65.7°F18.7°C 69.9°F21.1°C 55.4°F13.0°C 62.2°F16.8°C
Dew Point 57.2°F14.0°C 58.8°F14.9°C 53.1°F11.7°C 56.1°F13.4°C
Winds 3.5 mph E5.6 kmh E 11.2 mph E18.0 kmh E - 4.1 mph 6.6 kmh
Wind Gusts 8.3 mph13.4 kmh 19.3 mph31.1 kmh - -
Humidity 74% 94% 64% 81%
Pressure 29.86 in1011.2 mb 29.99 in1015.6 mb 29.86 in1011.2 mb -
Hour Temp Dew Point Humidity Winds Wind Gusts Pressure Precip Precip Rate Daily Precip Total
05:20 PM 65.7°F18.7°C 57.2°F14.0°C 74% 3.5 mph E5.6 kmh E 8.3 mph13.4 kmh 29.86 in1011.2 mb 0.00 in0.0 mm 0.00 in/hr0.0 mm/hr 0.00 in0.0 mm
05:10 PM 65.8°F18.8°C 57.7°F14.3°C 75% 4.3 mph SE6.9 kmh SE 8.3 mph13.4 kmh 29.86 in1011.2 mb 0.00 in0.0 mm 0.00 in/hr0.0 mm/hr 0.00 in0.0 mm
05:00 PM 65.9°F18.8°C 57.4°F14.1°C 74% 8.7 mph E14.0 kmh E 13.9 mph22.4 kmh 29.86 in1011.2 mb 0.00 in0.0 mm 0.00 in/hr0.0 mm/hr 0.00 in0.0 mm
04:50 PM 66.2°F19.0°C 57.3°F14.1°C 73% 6.5 mph E10.5 kmh E 11.0 mph17.7 kmh 29.86 in1011.2 mb 0.00 in0.0 mm 0.00 in/hr0.0 mm/hr 0.00 in0.0 mm
04:40 PM 66.6°F19.2°C 57.3°F14.1°C 72% 8.8 mph E14.2 kmh E 13.8 mph22.2 kmh 29.86 in1011.2 mb 0.00 in0.0 mm 0.00 in/hr0.0 mm/hr 0.00 in0.0 mm
04:30 PM 67.1°F19.5°C 57.8°F14.3°C 72% 6.2 mph ESE10.0 kmh ESE 11.0 mph17.7 kmh 29.86 in1011.2 mb 0.00 in0.0 mm 0.00 in/hr0.0 mm/hr 0.00 in0.0 mm
04:20 PM 67.1°F19.5°C 57.4°F14.1°C 71% 6.6 mph E10.6 kmh E 12.4 mph20.0 kmh 29.86 in1011.2 mb 0.00 in0.0 mm 0.00 in/hr0.0 mm/hr 0.00 in0.0 mm
04:10 PM 67.2°F19.6°C 57.1°F13.9°C 70% 11.2 mph E18.0 kmh E 15.2 mph24.5 kmh 29.86 in1011.2 mb 0.00 in0.0 mm 0.00 in/hr0.0 mm/hr 0.00 in0.0 mm
04:00 PM 67.2°F19.6°C 57.1°F13.9°C 70% 10.8 mph E17.4 kmh E 16.6 mph26.7 kmh 29.86 in1011.2 mb 0.00 in0.0 mm 0.00 in/hr0.0 mm/hr 0.00 in0.0 mm
03:50 PM 67.3°F19.6°C 56.8°F13.8°C 69% 9.9 mph ENE15.9 kmh ENE 19.3 mph31.1 kmh 29.86 in1011.2 mb 0.00 in0.0 mm 0.00 in/hr0.0 mm/hr 0.00 in0.0 mm
03:40 PM 67.4°F19.7°C 57.7°F14.3°C 71% 8.0 mph E12.9 kmh E 13.8 mph22.2 kmh 29.87 in1011.5 mb 0.00 in0.0 mm 0.00 in/hr0.0 mm/hr 0.00 in0.0 mm
03:30 PM 67.8°F19.9°C 56.9°F13.8°C 68% 9.3 mph ESE15.0 kmh ESE 13.8 mph22.2 kmh 29.87 in1011.5 mb 0.00 in0.0 mm 0.00 in/hr0.0 mm/hr 0.00 in0.0 mm
03:20 PM 67.6°F19.8°C 56.2°F13.4°C 67% 8.1 mph E13.0 kmh E 12.4 mph20.0 kmh 29.87 in1011.5 mb 0.00 in0.0 mm 0.00 in/hr0.0 mm/hr 0.00 in0.0 mm
03:10 PM 68.1°F20.1°C 56.7°F13.7°C 67% 9.2 mph SE14.8 kmh SE 13.8 mph22.2 kmh 29.87 in1011.5 mb 0.00 in0.0 mm 0.00 in/hr0.0 mm/hr 0.00 in0.0 mm
03:00 PM 68.3°F20.2°C 56.9°F13.8°C 67% 9.7 mph E15.6 kmh E 17.2 mph27.7 kmh 29.88 in1011.9 mb 0.00 in0.0 mm 0.00 in/hr0.0 mm/hr 0.00 in0.0 mm
02:50 PM 68.3°F20.2°C 56.1°F13.4°C 65% 10.0 mph E16.1 kmh E 13.0 mph20.9 kmh 29.88 in1011.9 mb 0.00 in0.0 mm 0.00 in/hr0.0 mm/hr 0.00 in0.0 mm
02:40 PM 68.3°F20.2°C 56.5°F13.6°C 66% 4.9 mph E7.9 kmh E 8.3 mph13.4 kmh 29.88 in1011.9 mb 0.00 in0.0 mm 0.00 in/hr0.0 mm/hr 0.00 in0.0 mm
02:30 PM 69.0°F20.6°C 57.2°F14.0°C 66% 8.7 mph ESE14.0 kmh ESE 16.1 mph25.9 kmh 29.87 in1011.5 mb 0.00 in0.0 mm 0.00 in/hr0.0 mm/hr 0.00 in0.0 mm
02:20 PM 68.9°F20.5°C 57.0°F13.9°C 66% 10.0 mph E16.1 kmh E 15.2 mph24.5 kmh 29.88 in1011.9 mb 0.00 in0.0 mm 0.00 in/hr0.0 mm/hr 0.00 in0.0 mm
02:10 PM 69.5°F20.8°C 57.2°F14.0°C 65% 9.9 mph E15.9 kmh E 15.2 mph24.5 kmh 29.88 in1011.9 mb 0.00 in0.0 mm 0.00 in/hr0.0 mm/hr 0.00 in0.0 mm
02:00 PM 69.8°F21.0°C 57.5°F14.2°C 65% 8.8 mph SE14.2 kmh SE 13.8 mph22.2 kmh 29.88 in1011.9 mb 0.00 in0.0 mm 0.00 in/hr0.0 mm/hr 0.00 in0.0 mm
01:50 PM 69.9°F21.1°C 57.6°F14.2°C 65% 9.2 mph E14.8 kmh E 13.8 mph22.2 kmh 29.88 in1011.9 mb 0.00 in0.0 mm 0.00 in/hr0.0 mm/hr 0.00 in0.0 mm
01:40 PM 69.9°F21.1°C 57.6°F14.2°C 65% 8.2 mph E13.2 kmh E 12.4 mph20.0 kmh 29.89 in1012.2 mb 0.00 in0.0 mm 0.00 in/hr0.0 mm/hr 0.00 in0.0 mm
01:30 PM 69.8°F21.0°C 57.1°F13.9°C 64% 7.7 mph ESE12.4 kmh ESE 11.0 mph17.7 kmh 29.89 in1012.2 mb 0.00 in0.0 mm 0.00 in/hr0.0 mm/hr 0.00 in0.0 mm
01:20 PM 69.2°F20.7°C 57.4°F14.1°C 66% 7.3 mph E11.7 kmh E 13.8 mph22.2 kmh 29.89 in1012.2 mb 0.00 in0.0 mm 0.00 in/hr0.0 mm/hr 0.00 in0.0 mm
01:10 PM 69.5°F20.8°C 57.2°F14.0°C 65% 8.1 mph E13.0 kmh E 17.7 mph28.5 kmh 29.89 in1012.2 mb 0.00 in0.0 mm 0.00 in/hr0.0 mm/hr 0.00 in0.0 mm
01:00 PM 69.3°F20.7°C 57.0°F13.9°C 65% 9.2 mph E14.8 kmh E 12.4 mph20.0 kmh 29.89 in1012.2 mb 0.00 in0.0 mm 0.00 in/hr0.0 mm/hr 0.00 in0.0 mm
12:50 PM 68.6°F20.3°C 56.8°F13.8°C 66% 6.0 mph E9.7 kmh E 12.5 mph20.1 kmh 29.90 in1012.5 mb 0.00 in0.0 mm 0.00 in/hr0.0 mm/hr 0.00 in0.0 mm
12:40 PM 68.6°F20.3°C 57.2°F14.0°C 67% 8.4 mph SE13.5 kmh SE 14.7 mph23.7 kmh 29.90 in1012.5 mb 0.00 in0.0 mm 0.00 in/hr0.0 mm/hr 0.00 in0.0 mm
12:30 PM 68.1°F20.1°C 56.3°F13.5°C 66% 8.6 mph E13.8 kmh E 13.8 mph22.2 kmh 29.91 in1012.9 mb 0.00 in0.0 mm 0.00 in/hr0.0 mm/hr 0.00 in0.0 mm
12:20 PM 67.5°F19.7°C 56.2°F13.4°C 67% 5.7 mph SE9.2 kmh SE 12.4 mph20.0 kmh 29.91 in1012.9 mb 0.00 in0.0 mm 0.00 in/hr0.0 mm/hr 0.00 in0.0 mm
12:10 PM 67.5°F19.7°C 56.6°F13.7°C 68% 6.9 mph SE11.1 kmh SE 13.0 mph20.9 kmh 29.91 in1012.9 mb 0.00 in0.0 mm 0.00 in/hr0.0 mm/hr 0.00 in0.0 mm
12:00 PM 67.9°F19.9°C 56.6°F13.7°C 67% 9.2 mph E14.8 kmh E 13.8 mph22.2 kmh 29.91 in1012.9 mb 0.00 in0.0 mm 0.00 in/hr0.0 mm/hr 0.00 in0.0 mm
11:50 AM 68.4°F20.2°C 56.6°F13.7°C 66% 10.1 mph E16.3 kmh E 12.4 mph20.0 kmh 29.91 in1012.9 mb 0.00 in0.0 mm 0.00 in/hr0.0 mm/hr 0.00 in0.0 mm
11:40 AM 68.2°F20.1°C 58.0°F14.4°C 70% 6.4 mph ESE10.3 kmh ESE 8.3 mph13.4 kmh 29.91 in1012.9 mb 0.00 in0.0 mm 0.00 in/hr0.0 mm/hr 0.00 in0.0 mm
11:30 AM 67.7°F19.8°C 58.0°F14.4°C 71% 5.0 mph E8.0 kmh E 16.6 mph26.7 kmh 29.92 in1013.2 mb 0.00 in0.0 mm 0.00 in/hr0.0 mm/hr 0.00 in0.0 mm
11:20 AM 66.7°F19.3°C 57.8°F14.3°C 73% 5.9 mph E9.5 kmh E 9.2 mph14.8 kmh 29.92 in1013.2 mb 0.00 in0.0 mm 0.00 in/hr0.0 mm/hr 0.00 in0.0 mm
11:10 AM 66.7°F19.3°C 58.5°F14.7°C 75% 3.7 mph E6.0 kmh E 10.9 mph17.5 kmh 29.92 in1013.2 mb 0.00 in0.0 mm 0.00 in/hr0.0 mm/hr 0.00 in0.0 mm
11:00 AM 65.8°F18.8°C 57.7°F14.3°C 75% 7.7 mph E12.4 kmh E 13.8 mph22.2 kmh 29.92 in1013.2 mb 0.00 in0.0 mm 0.00 in/hr0.0 mm/hr 0.00 in0.0 mm
10:50 AM 65.5°F18.6°C 57.0°F13.9°C 74% 6.9 mph ENE11.1 kmh ENE 13.8 mph22.2 kmh 29.93 in1013.5 mb 0.00 in0.0 mm 0.00 in/hr0.0 mm/hr 0.00 in0.0 mm
10:40 AM 65.8°F18.8°C 57.3°F14.1°C 74% 6.3 mph E10.1 kmh E 11.0 mph17.7 kmh 29.93 in1013.5 mb 0.00 in0.0 mm 0.00 in/hr0.0 mm/hr 0.00 in0.0 mm
10:30 AM 66.2°F19.0°C 58.8°F14.9°C 77% 6.5 mph E10.5 kmh E 12.1 mph19.5 kmh 29.93 in1013.5 mb 0.00 in0.0 mm 0.00 in/hr0.0 mm/hr 0.00 in0.0 mm
10:20 AM 64.8°F18.2°C 57.7°F14.3°C 78% 5.8 mph ESE9.3 kmh ESE 9.7 mph15.6 kmh 29.93 in1013.5 mb 0.00 in0.0 mm 0.00 in/hr0.0 mm/hr 0.00 in0.0 mm
10:10 AM 64.5°F18.1°C 57.1°F13.9°C 77% 9.4 mph E15.1 kmh E 13.8 mph22.2 kmh 29.94 in1013.9 mb 0.00 in0.0 mm 0.00 in/hr0.0 mm/hr 0.00 in0.0 mm
10:00 AM 64.3°F17.9°C 58.0°F14.4°C 80% 5.0 mph E8.0 kmh E 11.0 mph17.7 kmh 29.94 in1013.9 mb 0.00 in0.0 mm 0.00 in/hr0.0 mm/hr 0.00 in0.0 mm
09:50 AM 64.3°F17.9°C 58.0°F14.4°C 80% 8.8 mph ESE14.2 kmh ESE 14.5 mph23.3 kmh 29.94 in1013.9 mb 0.00 in0.0 mm 0.00 in/hr0.0 mm/hr 0.00 in0.0 mm
09:40 AM 63.7°F17.6°C 58.4°F14.7°C 83% 6.6 mph E10.6 kmh E 9.7 mph15.6 kmh 29.94 in1013.9 mb 0.00 in0.0 mm 0.00 in/hr0.0 mm/hr 0.00 in0.0 mm
09:30 AM 63.7°F17.6°C 58.4°F14.7°C 83% 7.6 mph E12.2 kmh E 13.8 mph22.2 kmh 29.94 in1013.9 mb 0.00 in0.0 mm 0.00 in/hr0.0 mm/hr 0.00 in0.0 mm
09:20 AM 63.0°F17.2°C 58.4°F14.7°C 85% 7.5 mph E12.1 kmh E 13.6 mph21.9 kmh 29.94 in1013.9 mb 0.00 in0.0 mm 0.00 in/hr0.0 mm/hr 0.00 in0.0 mm
09:10 AM 62.5°F16.9°C 58.3°F14.6°C 86% 4.8 mph E7.7 kmh E 8.3 mph13.4 kmh 29.94 in1013.9 mb 0.00 in0.0 mm 0.00 in/hr0.0 mm/hr 0.00 in0.0 mm
09:00 AM 62.1°F16.7°C 58.2°F14.6°C 87% 7.2 mph NE11.6 kmh NE 12.5 mph20.1 kmh 29.94 in1013.9 mb 0.00 in0.0 mm 0.00 in/hr0.0 mm/hr 0.00 in0.0 mm
08:50 AM 62.1°F16.7°C 58.2°F14.6°C 87% 5.1 mph E8.2 kmh E 11.0 mph17.7 kmh 29.94 in1013.9 mb 0.00 in0.0 mm 0.00 in/hr0.0 mm/hr 0.00 in0.0 mm
08:40 AM 61.6°F16.4°C 57.7°F14.3°C 87% 6.2 mph ESE10.0 kmh ESE 8.3 mph13.4 kmh 29.94 in1013.9 mb 0.00 in0.0 mm 0.00 in/hr0.0 mm/hr 0.00 in0.0 mm
08:30 AM 61.6°F16.4°C 57.7°F14.3°C 87% 6.6 mph ENE10.6 kmh ENE 10.9 mph17.5 kmh 29.94 in1013.9 mb 0.00 in0.0 mm 0.00 in/hr0.0 mm/hr 0.00 in0.0 mm
08:20 AM 61.4°F16.3°C 57.5°F14.2°C 87% 7.3 mph E11.7 kmh E 8.3 mph13.4 kmh 29.94 in1013.9 mb 0.00 in0.0 mm 0.00 in/hr0.0 mm/hr 0.00 in0.0 mm
08:10 AM 61.2°F16.2°C 57.9°F14.4°C 89% 1.7 mph E2.7 kmh E 4.1 mph6.6 kmh 29.95 in1014.2 mb 0.00 in0.0 mm 0.00 in/hr0.0 mm/hr 0.00 in0.0 mm
08:00 AM 60.6°F15.9°C 57.6°F14.2°C 90% 0.9 mph NNE1.4 kmh NNE 5.5 mph8.9 kmh 29.95 in1014.2 mb 0.00 in0.0 mm 0.00 in/hr0.0 mm/hr 0.00 in0.0 mm
07:50 AM 59.6°F15.3°C 57.3°F14.1°C 92% 1.0 mph ESE1.6 kmh ESE 4.1 mph6.6 kmh 29.95 in1014.2 mb 0.00 in0.0 mm 0.00 in/hr0.0 mm/hr 0.00 in0.0 mm
07:40 AM 58.6°F14.8°C 56.5°F13.6°C 93% 2.2 mph NNE3.5 kmh NNE 5.5 mph8.9 kmh 29.94 in1013.9 mb 0.00 in0.0 mm 0.00 in/hr0.0 mm/hr 0.00 in0.0 mm
07:30 AM 58.0°F14.4°C 56.0°F13.3°C 93% 1.4 mph E2.3 kmh E 4.1 mph6.6 kmh 29.95 in1014.2 mb 0.00 in0.0 mm 0.00 in/hr0.0 mm/hr 0.00 in0.0 mm
07:20 AM 57.8°F14.3°C 55.8°F13.2°C 93% 0.4 mph E0.6 kmh E 1.4 mph2.3 kmh 29.94 in1013.9 mb 0.00 in0.0 mm 0.00 in/hr0.0 mm/hr 0.00 in0.0 mm
07:10 AM 57.3°F14.1°C 55.3°F12.9°C 93% Calm Calm -- 29.94 in1013.9 mb 0.00 in0.0 mm 0.00 in/hr0.0 mm/hr 0.00 in0.0 mm
07:00 AM 56.8°F13.8°C 54.8°F12.7°C 93% 0.3 mph ESE0.5 kmh ESE -- 29.94 in1013.9 mb 0.00 in0.0 mm 0.00 in/hr0.0 mm/hr 0.00 in0.0 mm
06:50 AM 56.6°F13.7°C 54.9°F12.7°C 94% 0.4 mph NW0.6 kmh NW 2.8 mph4.5 kmh 29.94 in1013.9 mb 0.00 in0.0 mm 0.00 in/hr0.0 mm/hr 0.00 in0.0 mm
06:40 AM 55.4°F13.0°C 53.1°F11.7°C 92% 0.9 mph N1.4 kmh N 2.8 mph4.5 kmh 29.94 in1013.9 mb 0.00 in0.0 mm 0.00 in/hr0.0 mm/hr 0.00 in0.0 mm
06:30 AM 55.4°F13.0°C 53.1°F11.7°C 92% 0.5 mph N0.8 kmh N 1.4 mph2.3 kmh 29.94 in1013.9 mb 0.00 in0.0 mm 0.00 in/hr0.0 mm/hr 0.00 in0.0 mm
06:20 AM 55.4°F13.0°C 53.1°F11.7°C 92% 0.1 mph N0.2 kmh N 1.4 mph2.3 kmh 29.94 in1013.9 mb 0.00 in0.0 mm 0.00 in/hr0.0 mm/hr 0.00 in0.0 mm
06:10 AM 55.4°F13.0°C 53.1°F11.7°C 92% 0.6 mph N1.0 kmh N 2.7 mph4.3 kmh 29.94 in1013.9 mb 0.00 in0.0 mm 0.00 in/hr0.0 mm/hr 0.00 in0.0 mm
06:00 AM 55.4°F13.0°C 53.1°F11.7°C 92% Calm Calm -- 29.94 in1013.9 mb 0.00 in0.0 mm 0.00 in/hr0.0 mm/hr 0.00 in0.0 mm
05:50 AM 55.8°F13.2°C 53.8°F12.1°C 93% 0.2 mph WNW0.3 kmh WNW 1.4 mph2.3 kmh 29.94 in1013.9 mb 0.00 in0.0 mm 0.00 in/hr0.0 mm/hr 0.00 in0.0 mm
05:40 AM 56.3°F13.5°C 54.0°F12.2°C 92% 0.7 mph W1.1 kmh W 2.8 mph4.5 kmh 29.94 in1013.9 mb 0.00 in0.0 mm 0.00 in/hr0.0 mm/hr 0.00 in0.0 mm
05:30 AM 56.9°F13.8°C 54.9°F12.7°C 93% 0.3 mph NNW0.5 kmh NNW 2.8 mph4.5 kmh 29.94 in1013.9 mb 0.00 in0.0 mm 0.00 in/hr0.0 mm/hr 0.00 in0.0 mm
05:20 AM 56.9°F13.8°C 54.6°F12.6°C 92% 0.2 mph NNW0.3 kmh NNW 1.4 mph2.3 kmh 29.94 in1013.9 mb 0.00 in0.0 mm 0.00 in/hr0.0 mm/hr 0.00 in0.0 mm
05:10 AM 56.9°F13.8°C 54.6°F12.6°C 92% Calm Calm -- 29.93 in1013.5 mb 0.00 in0.0 mm 0.00 in/hr0.0 mm/hr 0.00 in0.0 mm
05:00 AM 57.0°F13.9°C 54.7°F12.6°C 92% 1.1 mph NW1.8 kmh NW 2.8 mph4.5 kmh 29.94 in1013.9 mb 0.00 in0.0 mm 0.00 in/hr0.0 mm/hr 0.00 in0.0 mm
04:50 AM 57.2°F14.0°C 54.9°F12.7°C 92% 1.1 mph E1.8 kmh E 2.8 mph4.5 kmh 29.94 in1013.9 mb 0.00 in0.0 mm 0.00 in/hr0.0 mm/hr 0.00 in0.0 mm
04:40 AM 57.4°F14.1°C 54.8°F12.7°C 91% 0.5 mph N0.8 kmh N 1.4 mph2.3 kmh 29.94 in1013.9 mb 0.00 in0.0 mm 0.00 in/hr0.0 mm/hr 0.00 in0.0 mm
04:30 AM 57.5°F14.2°C 54.9°F12.7°C 91% Calm Calm -- 29.95 in1014.2 mb 0.00 in0.0 mm 0.00 in/hr0.0 mm/hr 0.00 in0.0 mm
04:20 AM 57.7°F14.3°C 55.1°F12.8°C 91% Calm Calm -- 29.95 in1014.2 mb 0.00 in0.0 mm 0.00 in/hr0.0 mm/hr 0.00 in0.0 mm
04:10 AM 57.8°F14.3°C 54.9°F12.7°C 90% 1.6 mph N2.6 kmh N 4.1 mph6.6 kmh 29.95 in1014.2 mb 0.00 in0.0 mm 0.00 in/hr0.0 mm/hr 0.00 in0.0 mm
04:00 AM 57.7°F14.3°C 54.8°F12.7°C 90% 0.9 mph NW1.4 kmh NW 2.8 mph4.5 kmh 29.95 in1014.2 mb 0.00 in0.0 mm 0.00 in/hr0.0 mm/hr 0.00 in0.0 mm
03:50 AM 57.7°F14.3°C 54.8°F12.7°C 90% Calm Calm 1.4 mph2.3 kmh 29.95 in1014.2 mb 0.00 in0.0 mm 0.00 in/hr0.0 mm/hr 0.00 in0.0 mm
03:40 AM 57.8°F14.3°C 54.9°F12.7°C 90% 0.5 mph NW0.8 kmh NW 2.8 mph4.5 kmh 29.95 in1014.2 mb 0.00 in0.0 mm 0.00 in/hr0.0 mm/hr 0.00 in0.0 mm
03:30 AM 57.8°F14.3°C 54.9°F12.7°C 90% 0.5 mph NE0.8 kmh NE 2.8 mph4.5 kmh 29.95 in1014.2 mb 0.00 in0.0 mm 0.00 in/hr0.0 mm/hr 0.00 in0.0 mm
03:20 AM 57.8°F14.3°C 54.9°F12.7°C 90% 0.4 mph NNW0.6 kmh NNW 2.8 mph4.5 kmh 29.96 in1014.6 mb 0.00 in0.0 mm 0.00 in/hr0.0 mm/hr 0.00 in0.0 mm
03:10 AM 57.7°F14.3°C 54.8°F12.7°C 90% 0.3 mph NW0.5 kmh NW -- 29.96 in1014.6 mb 0.00 in0.0 mm 0.00 in/hr0.0 mm/hr 0.00 in0.0 mm
03:00 AM 57.7°F14.3°C 54.8°F12.7°C 90% 0.1 mph ESE0.2 kmh ESE 2.8 mph4.5 kmh 29.96 in1014.6 mb 0.00 in0.0 mm 0.00 in/hr0.0 mm/hr 0.00 in0.0 mm
02:50 AM 57.6°F14.2°C 54.7°F12.6°C 90% Calm Calm 1.4 mph2.3 kmh 29.96 in1014.6 mb 0.00 in0.0 mm 0.00 in/hr0.0 mm/hr 0.00 in0.0 mm
02:40 AM 57.6°F14.2°C 54.7°F12.6°C 90% Calm Calm -- 29.96 in1014.6 mb 0.00 in0.0 mm 0.00 in/hr0.0 mm/hr 0.00 in0.0 mm
02:30 AM 57.6°F14.2°C 54.7°F12.6°C 90% 0.3 mph N0.5 kmh N -- 29.96 in1014.6 mb 0.00 in0.0 mm 0.00 in/hr0.0 mm/hr 0.00 in0.0 mm
02:20 AM 57.5°F14.2°C 54.6°F12.6°C 90% Calm Calm -- 29.96 in1014.6 mb 0.00 in0.0 mm 0.00 in/hr0.0 mm/hr 0.00 in0.0 mm
02:10 AM 57.4°F14.1°C 54.5°F12.5°C 90% Calm Calm -- 29.96 in1014.6 mb 0.00 in0.0 mm 0.00 in/hr0.0 mm/hr 0.00 in0.0 mm
02:00 AM 57.3°F14.1°C 54.4°F12.4°C 90% Calm Calm -- 29.96 in1014.6 mb 0.00 in0.0 mm 0.00 in/hr0.0 mm/hr 0.00 in0.0 mm
01:50 AM 57.3°F14.1°C 54.4°F12.4°C 90% Calm Calm -- 29.96 in1014.6 mb 0.00 in0.0 mm 0.00 in/hr0.0 mm/hr 0.00 in0.0 mm
01:40 AM 57.2°F14.0°C 54.3°F12.4°C 90% 0.2 mph NNW0.3 kmh NNW 4.1 mph6.6 kmh 29.97 in1014.9 mb 0.00 in0.0 mm 0.00 in/hr0.0 mm/hr 0.00 in0.0 mm
01:30 AM 57.2°F14.0°C 54.3°F12.4°C 90% Calm Calm -- 29.97 in1014.9 mb 0.00 in0.0 mm 0.00 in/hr0.0 mm/hr 0.00 in0.0 mm
01:20 AM 57.1°F13.9°C 54.5°F12.5°C 91% Calm Calm -- 29.97 in1014.9 mb 0.00 in0.0 mm 0.00 in/hr0.0 mm/hr 0.00 in0.0 mm
01:10 AM 56.9°F13.8°C 54.3°F12.4°C 91% 0.6 mph NNW1.0 kmh NNW 2.8 mph4.5 kmh 29.98 in1015.2 mb 0.00 in0.0 mm 0.00 in/hr0.0 mm/hr 0.00 in0.0 mm
01:00 AM 56.9°F13.8°C 54.0°F12.2°C 90% Calm Calm -- 29.98 in1015.2 mb 0.00 in0.0 mm 0.00 in/hr0.0 mm/hr 0.00 in0.0 mm
12:50 AM 57.1°F13.9°C 54.5°F12.5°C 91% Calm Calm -- 29.98 in1015.2 mb 0.00 in0.0 mm 0.00 in/hr0.0 mm/hr 0.00 in0.0 mm
12:40 AM 57.0°F13.9°C 54.4°F12.4°C 91% Calm Calm -- 29.98 in1015.2 mb 0.00 in0.0 mm 0.00 in/hr0.0 mm/hr 0.00 in0.0 mm
12:30 AM 57.0°F13.9°C 54.1°F12.3°C 90% Calm Calm -- 29.98 in1015.2 mb 0.00 in0.0 mm 0.00 in/hr0.0 mm/hr 0.00 in0.0 mm
12:20 AM 57.0°F13.9°C 54.1°F12.3°C 90% Calm Calm -- 29.99 in1015.6 mb 0.00 in0.0 mm 0.00 in/hr0.0 mm/hr 0.00 in0.0 mm
12:10 AM 56.9°F13.8°C 54.3°F12.4°C 91% 0.1 mph NE0.2 kmh NE 2.8 mph4.5 kmh 29.99 in1015.6 mb 0.00 in0.0 mm 0.00 in/hr0.0 mm/hr 0.00 in0.0 mm
12:00 AM 56.7°F13.7°C 54.1°F12.3°C 91% 0.3 mph ESE0.5 kmh ESE 2.8 mph4.5 kmh 29.99 in1015.6 mb 0.00 in0.0 mm 0.00 in/hr0.0 mm/hr 0.00 in0.0 mm